createdAt,value
2023-11-18T00:02:50.862Z,11.39
2023-11-18T00:05:57.227Z,10.66
2023-11-18T00:09:04.196Z,10.50
2023-11-18T00:12:12.410Z,11.05
2023-11-18T00:15:19.205Z,10.99
2023-11-18T00:18:25.591Z,10.99
2023-11-18T00:21:32.505Z,10.61
2023-11-18T00:24:39.173Z,10.65
2023-11-18T00:27:47.072Z,10.36
2023-11-18T00:30:53.586Z,11.16
2023-11-18T00:34:00.493Z,10.03
2023-11-18T00:37:08.432Z,9.93
2023-11-18T00:40:14.834Z,9.85
2023-11-18T00:43:23.823Z,9.06
2023-11-18T00:46:30.432Z,9.10
2023-11-18T00:49:37.426Z,9.03
2023-11-18T00:52:44.238Z,9.02
2023-11-18T00:55:50.909Z,8.94
2023-11-18T00:58:58.892Z,9.03
2023-11-18T01:02:06.346Z,8.55
2023-11-18T01:05:14.486Z,8.94
2023-11-18T01:08:21.112Z,8.88
2023-11-18T01:11:27.845Z,8.93
2023-11-18T01:14:36.205Z,8.73
2023-11-18T01:17:43.438Z,8.22
2023-11-18T01:20:49.744Z,8.71
2023-11-18T01:23:56.574Z,8.74
2023-11-18T01:27:03.163Z,8.50
2023-11-18T01:30:12.413Z,8.59
2023-11-18T01:33:19.647Z,8.95
2023-11-18T01:36:26.063Z,9.08
2023-11-18T01:39:32.711Z,9.00
2023-11-18T01:42:39.480Z,8.62
2023-11-18T01:45:47.590Z,8.40
2023-11-18T01:48:54.903Z,8.40
2023-11-18T01:52:02.693Z,8.60
2023-11-18T01:55:09.646Z,8.38
2023-11-18T01:58:20.897Z,8.05
2023-11-18T02:01:31.881Z,7.90
2023-11-18T02:04:38.886Z,8.57
2023-11-18T02:07:47.588Z,8.12
2023-11-18T02:10:59.926Z,8.32
2023-11-18T02:14:12.170Z,8.72
2023-11-18T02:17:25.596Z,8.86
2023-11-18T02:20:33.273Z,8.53
2023-11-18T02:23:40.168Z,8.12
2023-11-18T02:26:47.924Z,8.47
2023-11-18T02:29:54.435Z,8.78
2023-11-18T02:33:06.937Z,8.64
2023-11-18T02:36:20.887Z,8.58
2023-11-18T02:39:32.599Z,8.77
2023-11-18T02:42:41.196Z,8.42
2023-11-18T02:45:48.189Z,8.33
2023-11-18T02:48:55.333Z,8.05
2023-11-18T02:52:02.209Z,8.23
2023-11-18T02:55:10.038Z,7.90
2023-11-18T02:58:18.926Z,7.78
2023-11-18T03:01:26.568Z,7.97
2023-11-18T03:04:33.276Z,8.85
2023-11-18T03:07:39.615Z,7.70
2023-11-18T03:10:46.034Z,8.45
2023-11-18T03:13:54.443Z,8.36
2023-11-18T03:17:01.286Z,7.81
2023-11-18T03:20:13.266Z,7.82
2023-11-18T03:23:19.729Z,8.06
2023-11-18T03:26:27.306Z,7.41
2023-11-18T03:29:35.111Z,8.10
2023-11-18T03:32:42.709Z,8.08
2023-11-18T03:35:49.374Z,7.91
2023-11-18T03:38:56.331Z,7.78
2023-11-18T03:42:03.172Z,7.49
2023-11-18T03:45:12.126Z,7.37
2023-11-18T03:48:19.842Z,7.01
2023-11-18T03:51:26.139Z,7.42
2023-11-18T03:54:32.826Z,8.22
2023-11-18T03:57:39.190Z,7.71
2023-11-18T04:00:47.520Z,7.29
2023-11-18T04:03:54.214Z,7.31
2023-11-18T04:07:02.281Z,7.27
2023-11-18T04:10:11.555Z,7.27
2023-11-18T04:13:18.399Z,6.90
2023-11-18T04:16:26.860Z,7.29
2023-11-18T04:19:33.758Z,7.15
2023-11-18T04:22:58.822Z,6.59
2023-11-18T04:26:05.924Z,6.67
2023-11-18T04:29:12.669Z,6.70
2023-11-18T04:32:20.726Z,6.71
2023-11-18T04:35:27.130Z,6.72
2023-11-18T04:38:34.898Z,6.91
2023-11-18T04:41:41.546Z,6.61
2023-11-18T04:44:48.426Z,6.25
2023-11-18T04:47:56.242Z,6.79
2023-11-18T04:51:02.556Z,6.72
2023-11-18T04:54:09.606Z,6.65
2023-11-18T04:57:16.332Z,6.46
2023-11-18T05:00:23.318Z,6.52
2023-11-18T05:03:31.834Z,6.77
2023-11-18T05:06:38.488Z,6.51
2023-11-18T05:09:45.273Z,6.37
2023-11-18T05:12:57.128Z,5.86
2023-11-18T05:16:05.152Z,6.45
2023-11-18T05:19:13.244Z,6.58
2023-11-18T05:22:20.001Z,6.26
2023-11-18T05:25:26.294Z,6.22
2023-11-18T05:28:33.766Z,5.97
2023-11-18T05:31:40.618Z,6.10
2023-11-18T05:34:49.027Z,6.17
2023-11-18T05:37:55.605Z,6.11
2023-11-18T05:41:03.215Z,6.61
2023-11-18T05:44:13.368Z,6.12
2023-11-18T05:47:20.315Z,6.37
2023-11-18T05:50:28.323Z,6.52
2023-11-18T05:53:35.296Z,6.32
2023-11-18T05:56:42.188Z,6.02
2023-11-18T05:59:49.546Z,6.46
2023-11-18T06:02:57.469Z,6.02
2023-11-18T06:06:07.944Z,5.94
2023-11-18T06:09:21.969Z,5.38
2023-11-18T06:12:29.131Z,5.44
2023-11-18T06:15:37.065Z,5.20
2023-11-18T06:18:46.453Z,5.02
2023-11-18T06:21:54.223Z,5.24
2023-11-18T06:25:01.047Z,5.11
2023-11-18T06:28:09.186Z,5.12
2023-11-18T06:31:15.998Z,5.48
2023-11-18T06:34:23.655Z,5.64
2023-11-18T06:37:36.226Z,5.50
2023-11-18T06:40:42.610Z,5.18
2023-11-18T06:43:58.729Z,5.78
2023-11-18T06:47:07.580Z,6.00
2023-11-18T06:50:15.635Z,6.16
2023-11-18T06:53:23.816Z,6.21
2023-11-18T06:56:31.604Z,5.24
2023-11-18T06:59:38.279Z,5.87
2023-11-18T07:02:44.860Z,5.79
2023-11-18T07:05:51.578Z,6.08
2023-11-18T07:09:01.538Z,6.19
2023-11-18T07:12:09.292Z,6.74
2023-11-18T07:15:17.139Z,6.81
2023-11-18T07:18:24.559Z,6.15
2023-11-18T07:21:31.323Z,6.49
2023-11-18T07:24:39.306Z,6.36
2023-11-18T07:27:46.131Z,6.56
2023-11-18T07:30:53.641Z,6.76
2023-11-18T07:34:00.821Z,6.86
2023-11-18T07:37:09.468Z,6.80
2023-11-18T07:40:23.662Z,6.75
2023-11-18T07:43:32.599Z,6.91
2023-11-18T07:46:39.801Z,6.90
2023-11-18T07:49:46.926Z,6.67
2023-11-18T07:52:53.306Z,7.37
2023-11-18T07:56:06.071Z,6.63
2023-11-18T07:59:17.331Z,7.15
2023-11-18T08:02:24.337Z,6.60
2023-11-18T08:05:32.952Z,7.13
2023-11-18T08:08:40.258Z,6.94
2023-11-18T08:11:48.458Z,7.15
2023-11-18T08:14:54.793Z,7.22
2023-11-18T08:18:01.704Z,6.79
2023-11-18T08:21:08.759Z,7.13
2023-11-18T08:24:16.184Z,7.22
2023-11-18T08:27:24.463Z,7.33
2023-11-18T08:30:31.018Z,7.15
2023-11-18T08:33:37.551Z,6.96
2023-11-18T08:36:45.119Z,7.00
2023-11-18T08:39:51.255Z,7.49
2023-11-18T08:42:59.411Z,6.75
2023-11-18T08:46:14.546Z,7.71
2023-11-18T08:49:22.998Z,7.36
2023-11-18T08:52:30.093Z,7.10
2023-11-18T08:55:43.967Z,7.11
2023-11-18T08:58:53.212Z,7.51
2023-11-18T09:02:07.385Z,6.79
2023-11-18T09:05:14.353Z,7.08
2023-11-18T09:08:23.328Z,6.96
2023-11-18T09:11:36.438Z,7.66
2023-11-18T09:14:44.142Z,7.52
2023-11-18T09:17:50.543Z,7.26
2023-11-18T09:20:57.982Z,7.46
2023-11-18T09:24:06.672Z,7.31
2023-11-18T09:27:13.977Z,7.78
2023-11-18T09:30:21.875Z,7.71
2023-11-18T09:33:34.044Z,7.28
2023-11-18T09:36:41.098Z,7.47
2023-11-18T09:39:47.672Z,6.87
2023-11-18T09:42:54.229Z,7.64
2023-11-18T09:46:13.667Z,7.04
2023-11-18T09:49:35.224Z,7.22
2023-11-18T09:52:53.294Z,6.56
2023-11-18T09:56:11.008Z,6.10
2023-11-18T09:59:25.145Z,6.69
2023-11-18T10:02:34.816Z,7.65
2023-11-18T10:05:45.614Z,7.65
2023-11-18T10:08:54.768Z,7.48
2023-11-18T10:12:06.879Z,7.63
2023-11-18T10:15:18.425Z,8.00
2023-11-18T10:18:30.037Z,7.67
2023-11-18T10:21:41.207Z,7.42
2023-11-18T10:24:48.336Z,7.55
2023-11-18T10:27:55.064Z,7.23
2023-11-18T10:31:06.095Z,7.22
2023-11-18T10:34:19.973Z,6.99
2023-11-18T10:37:27.422Z,7.50
2023-11-18T10:40:37.402Z,6.55
2023-11-18T10:43:45.814Z,5.77
2023-11-18T10:46:55.284Z,7.33
2023-11-18T10:50:03.836Z,7.35
2023-11-18T10:53:12.735Z,7.27
2023-11-18T10:56:28.251Z,6.97
2023-11-18T10:59:34.735Z,7.00
2023-11-18T11:02:42.825Z,7.20
2023-11-18T11:05:51.116Z,6.76
2023-11-18T11:08:59.936Z,6.90
2023-11-18T11:12:16.432Z,7.05
2023-11-18T11:15:29.669Z,6.88
2023-11-18T11:18:42.731Z,6.89
2023-11-18T11:21:58.082Z,6.88
2023-11-18T11:25:23.049Z,6.58
2023-11-18T11:28:40.844Z,6.49
2023-11-18T11:31:56.042Z,6.82
2023-11-18T11:35:09.627Z,7.28
2023-11-18T11:38:20.124Z,6.97
2023-11-18T11:41:28.820Z,7.05
2023-11-18T11:44:43.662Z,6.81
2023-11-18T11:47:52.580Z,6.61
2023-11-18T11:51:15.363Z,5.79
2023-11-18T11:54:30.602Z,6.35
2023-11-18T11:57:40.290Z,7.08
2023-11-18T12:00:49.386Z,6.18
2023-11-18T12:03:59.516Z,6.23
2023-11-18T12:07:18.473Z,6.32
2023-11-18T12:10:36.911Z,6.40
2023-11-18T12:14:10.963Z,5.93
2023-11-18T12:17:22.734Z,5.70
2023-11-18T12:20:43.898Z,5.85
2023-11-18T12:24:22.134Z,6.19
2023-11-18T12:27:53.269Z,6.52
2023-11-18T12:31:07.585Z,6.19
2023-11-18T12:34:18.210Z,6.13
2023-11-18T12:37:55.407Z,6.08
2023-11-18T12:41:03.857Z,6.16
2023-11-18T12:44:33.009Z,5.99
2023-11-18T12:47:41.865Z,5.82
2023-11-18T12:50:48.836Z,5.68
2023-11-18T12:53:55.820Z,5.75
2023-11-18T12:57:03.552Z,6.40
2023-11-18T13:00:18.337Z,6.33
2023-11-18T13:03:24.833Z,5.64
2023-11-18T13:06:31.508Z,5.49
2023-11-18T13:09:39.547Z,5.62
2023-11-18T13:12:48.528Z,5.37
2023-11-18T13:15:56.887Z,5.21
2023-11-18T13:19:06.588Z,5.28
2023-11-18T13:22:13.969Z,5.80
2023-11-18T13:25:22.525Z,5.30
2023-11-18T13:28:29.454Z,5.81
2023-11-18T13:31:37.955Z,5.24
2023-11-18T13:34:44.792Z,5.43
2023-11-18T13:37:51.977Z,5.13
2023-11-18T13:40:59.481Z,5.57
2023-11-18T13:44:06.673Z,5.54
2023-11-18T13:47:14.883Z,5.10
2023-11-18T13:50:21.691Z,5.29
2023-11-18T13:53:28.393Z,5.28
2023-11-18T13:56:34.890Z,4.84
2023-11-18T13:59:45.902Z,5.06
2023-11-18T14:02:54.284Z,4.98
2023-11-18T14:06:03.594Z,5.08
2023-11-18T14:09:12.301Z,5.04
2023-11-18T14:12:18.693Z,5.34
2023-11-18T14:15:25.812Z,5.00
2023-11-18T14:18:33.877Z,5.07
2023-11-18T14:21:40.603Z,5.16
2023-11-18T14:24:47.051Z,4.72
2023-11-18T14:27:54.705Z,5.01
2023-11-18T14:31:01.138Z,4.72
2023-11-18T14:34:11.320Z,4.80
2023-11-18T14:37:20.564Z,4.84
2023-11-18T14:40:29.605Z,4.84
2023-11-18T14:43:36.130Z,4.61
2023-11-18T14:46:42.754Z,4.76
2023-11-18T14:49:50.988Z,5.37
2023-11-18T14:53:01.389Z,4.77
2023-11-18T14:56:09.205Z,4.53
2023-11-18T14:59:16.263Z,4.66
2023-11-18T15:02:22.833Z,4.64
2023-11-18T15:05:33.021Z,4.72
2023-11-18T15:08:43.881Z,4.59
2023-11-18T15:11:54.727Z,4.43
2023-11-18T15:15:01.064Z,4.34
2023-11-18T15:18:10.267Z,4.37
2023-11-18T15:21:18.456Z,4.60
2023-11-18T15:24:25.498Z,4.10
2023-11-18T15:27:34.236Z,3.79
2023-11-18T15:30:41.618Z,4.10
2023-11-18T15:33:48.092Z,3.93
2023-11-18T15:36:56.129Z,3.95
2023-11-18T15:40:03.024Z,4.08
2023-11-18T15:43:15.752Z,4.17
2023-11-18T15:46:22.022Z,3.79
2023-11-18T15:49:28.334Z,4.28
2023-11-18T15:52:37.758Z,4.40
2023-11-18T15:55:45.682Z,3.91
2023-11-18T15:58:52.225Z,4.30
2023-11-18T16:01:58.533Z,4.02
2023-11-18T16:05:06.964Z,4.28
2023-11-18T16:08:15.168Z,4.35
2023-11-18T16:11:22.032Z,4.37
2023-11-18T16:14:28.582Z,4.62
2023-11-18T16:17:35.179Z,4.08
2023-11-18T16:20:41.510Z,4.37
2023-11-18T16:23:49.248Z,3.97
2023-11-18T16:26:55.824Z,4.07
2023-11-18T16:30:02.397Z,4.39
2023-11-18T16:33:09.926Z,4.55
2023-11-18T16:36:23.917Z,4.39
2023-11-18T16:39:31.967Z,4.20
2023-11-18T16:42:38.994Z,4.46
2023-11-18T16:45:49.376Z,4.22
2023-11-18T16:48:57.838Z,3.91
2023-11-18T16:52:07.124Z,4.38
2023-11-18T16:55:15.447Z,3.85
2023-11-18T16:58:22.254Z,3.86
2023-11-18T17:01:28.688Z,3.98
2023-11-18T17:04:36.122Z,3.75
2023-11-18T17:07:42.624Z,3.94
2023-11-18T17:10:55.067Z,3.76
2023-11-18T17:14:01.422Z,3.88
2023-11-18T17:17:09.994Z,3.76
2023-11-18T17:20:18.313Z,4.12
2023-11-18T17:23:26.322Z,3.90
2023-11-18T17:26:40.368Z,4.01
2023-11-18T17:29:47.297Z,4.17
2023-11-18T17:32:54.524Z,3.75
2023-11-18T17:36:01.158Z,3.80
2023-11-18T17:39:07.896Z,4.11
2023-11-18T17:42:15.832Z,4.59
2023-11-18T17:45:22.294Z,3.85
2023-11-18T17:48:28.507Z,3.44
2023-11-18T17:51:35.247Z,3.91
2023-11-18T17:54:44.882Z,4.26
2023-11-18T17:57:53.635Z,3.85
2023-11-18T18:01:03.956Z,4.40
2023-11-18T18:04:10.698Z,4.57
2023-11-18T18:07:17.443Z,4.30
2023-11-18T18:10:28.784Z,3.95
2023-11-18T18:13:37.904Z,4.37
2023-11-18T18:16:44.264Z,3.88
2023-11-18T18:19:51.522Z,3.63
2023-11-18T18:22:58.081Z,3.55
2023-11-18T18:26:04.878Z,3.48
2023-11-18T18:29:15.625Z,3.90
2023-11-18T18:32:24.103Z,3.72
2023-11-18T18:35:30.666Z,3.79
2023-11-18T18:38:37.401Z,4.02
2023-11-18T18:41:43.867Z,3.77
2023-11-18T18:44:55.737Z,3.73
2023-11-18T18:48:03.565Z,3.73
2023-11-18T18:51:10.918Z,3.77
2023-11-18T18:54:20.051Z,3.41
2023-11-18T18:57:26.476Z,3.66
2023-11-18T19:00:34.316Z,3.49
2023-11-18T19:03:48.594Z,3.94
2023-11-18T19:06:56.143Z,3.69
2023-11-18T19:10:03.209Z,3.53
2023-11-18T19:13:09.944Z,3.85
2023-11-18T19:16:17.878Z,3.94
2023-11-18T19:19:24.590Z,3.56
2023-11-18T19:22:35.784Z,3.60
2023-11-18T19:25:42.083Z,3.52
2023-11-18T19:28:48.500Z,3.83
2023-11-18T19:31:56.484Z,3.82
2023-11-18T19:35:06.349Z,4.23
2023-11-18T19:38:13.075Z,3.70
2023-11-18T19:41:19.979Z,4.17
2023-11-18T19:44:26.383Z,3.96
2023-11-18T19:47:36.305Z,4.17
2023-11-18T19:50:42.894Z,4.01
2023-11-18T19:53:49.683Z,4.25
2023-11-18T19:56:56.165Z,3.84
2023-11-18T20:00:06.394Z,3.87
2023-11-18T20:03:15.829Z,3.81
2023-11-18T20:06:22.650Z,3.79
2023-11-18T20:09:29.164Z,4.07
2023-11-18T20:12:36.305Z,4.05
2023-11-18T20:15:42.774Z,3.55
2023-11-18T20:18:50.884Z,3.80
2023-11-18T20:21:57.285Z,3.57
2023-11-18T20:25:03.897Z,3.76
2023-11-18T20:28:10.276Z,3.53
2023-11-18T20:31:16.970Z,3.57
2023-11-18T20:34:24.825Z,3.89
2023-11-18T20:37:32.618Z,3.85
2023-11-18T20:40:38.903Z,3.72
2023-11-18T20:43:46.092Z,3.92
2023-11-18T20:46:54.146Z,4.01
2023-11-18T20:50:02.066Z,3.82
2023-11-18T20:53:08.924Z,3.79
2023-11-18T20:56:17.899Z,3.76
2023-11-18T20:59:24.866Z,3.77
2023-11-18T21:02:31.757Z,3.95
2023-11-18T21:05:39.949Z,3.69
2023-11-18T21:08:46.583Z,3.61
2023-11-18T21:11:54.921Z,3.90
2023-11-18T21:15:21.835Z,3.76
2023-11-18T21:18:28.602Z,3.59
2023-11-18T21:21:39.317Z,3.86
2023-11-18T21:24:45.901Z,4.08
2023-11-18T21:27:53.294Z,3.69
2023-11-18T21:30:59.983Z,3.53
2023-11-18T21:34:06.739Z,3.82
2023-11-18T21:37:14.718Z,3.98
2023-11-18T21:40:25.595Z,3.73
2023-11-18T21:43:32.436Z,3.67
2023-11-18T21:46:39.029Z,4.07
2023-11-18T21:53:02.053Z,3.86
2023-11-18T21:56:09.313Z,3.66
2023-11-18T21:59:15.926Z,3.63
2023-11-18T22:02:23.727Z,3.63
2023-11-18T22:05:30.501Z,3.95
2023-11-18T22:08:38.517Z,3.89
2023-11-18T22:11:50.475Z,3.66
2023-11-18T22:15:05.443Z,3.63
2023-11-18T22:18:12.113Z,3.79
2023-11-18T22:21:18.822Z,3.74
2023-11-18T22:24:26.860Z,4.04
2023-11-18T22:27:35.277Z,3.89
2023-11-18T22:30:41.705Z,3.63
2023-11-18T22:33:49.491Z,3.89
2023-11-18T22:36:56.655Z,3.82
2023-11-18T22:40:09.851Z,3.84
2023-11-18T22:43:16.833Z,3.88
2023-11-18T22:46:23.378Z,3.83
2023-11-18T22:49:30.289Z,3.86
2023-11-18T22:52:37.511Z,3.96
2023-11-18T22:55:45.957Z,3.95
2023-11-18T22:58:54.810Z,3.92
2023-11-18T23:02:03.418Z,4.12
2023-11-18T23:05:15.102Z,3.43
2023-11-18T23:08:23.535Z,3.62
2023-11-18T23:11:32.362Z,3.77
2023-11-18T23:14:39.147Z,4.13
2023-11-18T23:17:46.823Z,3.93
2023-11-18T23:20:55.826Z,4.08
2023-11-18T23:24:03.533Z,3.64
2023-11-18T23:27:11.707Z,3.83
2023-11-18T23:30:22.184Z,3.93
2023-11-18T23:33:29.300Z,4.19
2023-11-18T23:36:35.676Z,3.93
2023-11-18T23:39:42.760Z,3.57
2023-11-18T23:42:50.704Z,4.11
2023-11-18T23:45:57.583Z,3.42
2023-11-18T23:49:04.168Z,3.82
2023-11-18T23:52:11.614Z,3.84
2023-11-18T23:55:18.398Z,3.59
2023-11-18T23:58:27.414Z,3.75
